Time;durP1;ratioP1;P1;durP2;ratioP2;P2;SDS_P1;SDS_P2;PMS_P1;PMS_P2;Temp;Humidity;BMP_temperature;BMP_pressure;BME280_temperature;BME280_humidity;BME280_pressure;Samples;Min_cycle;Max_cycle;Signal;HPM_P1;HPM_P2
2021/03/14 00:01:37;;;;;;;15.87;2.63;;;5.80;92.90;;;;;;5109384;28;20048;-59
2021/03/14 00:04:03;;;;;;;16.00;2.80;;;5.80;92.90;;;;;;5109059;28;20645;-59
2021/03/14 00:06:28;;;;;;;25.37;3.63;;;5.80;92.80;;;;;;5142095;27;20530;-59
2021/03/14 00:08:54;;;;;;;19.23;3.57;;;5.80;92.70;;;;;;5109301;28;20078;-59
2021/03/14 00:11:20;;;;;;;17.73;3.05;;;5.70;92.80;;;;;;5109237;28;20055;-59
2021/03/14 00:13:46;;;;;;;21.33;3.20;;;5.70;92.80;;;;;;5108997;28;20040;-58
2021/03/14 00:16:12;;;;;;;23.60;3.13;;;5.60;92.90;;;;;;5108870;28;20048;-59
2021/03/14 00:18:40;;;;;;;21.67;4.40;;;5.60;93.10;;;;;;5108934;28;20160;-59
2021/03/14 00:21:07;;;;;;;19.88;3.15;;;5.60;93.00;;;;;;5108905;28;20067;-59
2021/03/14 00:23:33;;;;;;;17.67;2.75;;;5.60;93.10;;;;;;5109020;28;20100;-58
2021/03/14 00:25:59;;;;;;;18.03;2.90;;;5.50;93.10;;;;;;5109012;28;20120;-59
2021/03/14 00:28:25;;;;;;;14.40;2.63;;;5.50;93.30;;;;;;5141342;27;20079;-58
2021/03/14 00:30:52;;;;;;;20.20;4.03;;;5.40;93.50;;;;;;5108368;28;20240;-59
2021/03/14 00:33:18;;;;;;;20.20;3.28;;;5.30;93.60;;;;;;5141479;27;20075;-59
2021/03/14 00:35:44;;;;;;;22.63;3.40;;;5.20;93.80;;;;;;5108348;28;20047;-58
2021/03/14 00:38:10;;;;;;;20.07;2.87;;;5.20;93.90;;;;;;5108725;28;20054;-59
2021/03/14 00:40:36;;;;;;;22.90;3.22;;;5.20;94.00;;;;;;5108331;28;20047;-58
2021/03/14 00:43:04;;;;;;;17.73;3.27;;;5.10;94.10;;;;;;5108153;28;20163;-58
2021/03/14 00:45:32;;;;;;;21.65;3.47;;;5.10;94.10;;;;;;5108474;28;20198;-59
2021/03/14 00:48:03;;;;;;;21.73;3.17;;;5.10;94.20;;;;;;5108214;28;20395;-59
2021/03/14 00:50:40;;;;;;;23.38;3.72;;;5.10;94.30;;;;;;5108022;28;20043;-58
2021/03/14 00:53:06;;;;;;;17.58;2.80;;;5.10;94.30;;;;;;5108412;28;20676;-59
2021/03/14 00:55:33;;;;;;;27.47;3.60;;;5.10;94.30;;;;;;5108195;28;20115;-59
2021/03/14 00:57:59;;;;;;;17.77;2.85;;;5.10;94.40;;;;;;5108200;28;20132;-59
2021/03/14 01:00:25;;;;;;;16.80;2.70;;;5.10;94.00;;;;;;5108324;28;20048;-59
2021/03/14 01:02:51;;;;;;;24.15;3.78;;;5.20;94.10;;;;;;5107989;28;20048;-58
2021/03/14 01:05:17;;;;;;;19.50;3.60;;;5.20;94.10;;;;;;5108074;28;20046;-58
2021/03/14 01:07:42;;;;;;;17.60;3.10;;;5.20;94.10;;;;;;5108064;28;20474;-59
2021/03/14 01:10:10;;;;;;;17.53;2.97;;;5.20;94.10;;;;;;5108198;28;20201;-58
2021/03/14 01:12:38;;;;;;;19.65;3.13;;;5.20;94.30;;;;;;5108060;28;20478;-58
2021/03/14 01:15:06;;;;;;;20.75;4.03;;;5.10;94.40;;;;;;5108207;28;20036;-60
2021/03/14 01:17:32;;;;;;;26.55;3.92;;;5.10;94.50;;;;;;5108413;28;20040;-59
2021/03/14 01:19:58;;;;;;;16.50;3.67;;;5.10;94.40;;;;;;5107902;28;20515;-58
2021/03/14 01:22:24;;;;;;;23.87;3.67;;;5.10;94.40;;;;;;5107862;28;20043;-58
2021/03/14 01:24:49;;;;;;;23.83;3.90;;;5.10;94.60;;;;;;5107975;28;20482;-58
2021/03/14 01:27:15;;;;;;;23.23;3.53;;;5.10;94.50;;;;;;5108164;28;20039;-58
2021/03/14 01:29:41;;;;;;;19.10;3.43;;;5.30;94.60;;;;;;5107450;28;20087;-59
2021/03/14 01:32:07;;;;;;;21.90;4.17;;;5.20;94.70;;;;;;5108037;28;20171;-59
2021/03/14 01:34:32;;;;;;;28.97;4.00;;;5.20;94.70;;;;;;5107811;28;20071;-60
2021/03/14 01:36:58;;;;;;;29.03;4.20;;;5.20;94.70;;;;;;5107611;28;20052;-57
2021/03/14 01:39:24;;;;;;;28.33;3.83;;;5.20;94.70;;;;;;5107809;28;20060;-59
2021/03/14 01:41:50;;;;;;;24.77;4.10;;;5.20;94.80;;;;;;5107858;28;20047;-59
2021/03/14 01:44:15;;;;;;;21.67;3.60;;;5.30;94.70;;;;;;5107961;28;20815;-58
2021/03/14 01:46:41;;;;;;;22.93;3.77;;;5.30;94.60;;;;;;5107614;28;20040;-58
2021/03/14 01:49:07;;;;;;;21.93;3.50;;;5.30;94.60;;;;;;5107804;28;20449;-58
2021/03/14 01:51:33;;;;;;;21.70;3.60;;;5.30;94.50;;;;;;5108583;28;20329;-58
2021/03/14 01:54:00;;;;;;;22.57;3.77;;;5.30;94.40;;;;;;5111460;28;20112;-58
2021/03/14 01:56:27;;;;;;;28.10;3.70;;;5.30;94.50;;;;;;5110332;28;20052;-59
2021/03/14 01:58:54;;;;;;;23.05;3.17;;;5.30;94.60;;;;;;5111321;28;20039;-58
2021/03/14 02:01:20;;;;;;;26.30;3.70;;;5.20;94.60;;;;;;5111569;27;20044;-59
2021/03/14 02:03:46;;;;;;;19.35;3.67;;;5.20;94.70;;;;;;5111953;28;20671;-58
2021/03/14 02:06:12;;;;;;;20.83;3.17;;;5.20;94.80;;;;;;5111642;28;20047;-58
2021/03/14 02:08:37;;;;;;;21.90;3.10;;;5.20;94.90;;;;;;5111825;28;20139;-58
2021/03/14 02:11:04;;;;;;;24.60;4.10;;;5.20;95.00;;;;;;5111234;28;20116;-58
2021/03/14 02:13:35;;;;;;;32.70;3.92;;;5.10;95.00;;;;;;5111600;28;20059;-59
2021/03/14 02:16:12;;;;;;;24.17;4.43;;;5.10;95.10;;;;;;5111127;27;20054;-59
2021/03/14 02:18:41;;;;;;;22.50;3.47;;;5.10;95.10;;;;;;5111310;28;20051;-59
2021/03/14 02:21:07;;;;;;;20.70;3.78;;;5.10;95.10;;;;;;5111608;28;20152;-59
2021/03/14 02:23:55;;;;;;;25.10;3.80;;;5.10;95.10;;;;;;5111144;28;20131;-59
2021/03/14 02:26:28;;;;;;;26.15;4.88;;;5.10;95.20;;;;;;5111318;28;20470;-59
2021/03/14 02:28:55;;;;;;;27.17;3.80;;;5.10;95.00;;;;;;5110800;28;20055;-59
2021/03/14 02:31:23;;;;;;;34.25;4.63;;;5.20;95.00;;;;;;5111002;27;20052;-59
2021/03/14 02:33:54;;;;;;;26.05;4.60;;;5.20;94.90;;;;;;5110943;28;20059;-59
2021/03/14 02:36:21;;;;;;;19.80;3.47;;;5.20;94.90;;;;;;5110874;28;20588;-58
2021/03/14 02:38:48;;;;;;;21.67;4.22;;;5.10;94.90;;;;;;5109402;28;20498;-58
2021/03/14 02:41:15;;;;;;;23.02;4.07;;;5.10;94.90;;;;;;5111227;28;20066;-58
2021/03/14 02:43:41;;;;;;;22.73;3.40;;;5.10;94.90;;;;;;5110585;28;20057;-58
2021/03/14 02:46:07;;;;;;;21.67;3.97;;;5.10;94.80;;;;;;5110703;28;20127;-58
2021/03/14 02:48:36;;;;;;;20.30;3.78;;;5.10;94.80;;;;;;5110995;28;20148;-58
2021/03/14 02:51:02;;;;;;;21.55;3.83;;;5.20;94.70;;;;;;5110341;28;20149;-58
2021/03/14 02:53:29;;;;;;;25.08;4.15;;;5.20;94.60;;;;;;5110448;28;20050;-59
2021/03/14 02:55:57;;;;;;;27.58;4.30;;;5.30;94.60;;;;;;5110651;28;20066;-59
2021/03/14 02:58:23;;;;;;;23.48;3.70;;;5.30;94.60;;;;;;5110402;28;20155;-58
2021/03/14 03:00:51;;;;;;;19.35;3.22;;;5.30;94.50;;;;;;5110541;28;20055;-59
2021/03/14 03:03:22;;;;;;;23.38;4.50;;;5.30;94.50;;;;;;5110538;28;20052;-59
2021/03/14 03:05:48;;;;;;;28.48;4.57;;;5.30;94.50;;;;;;5110095;28;20052;-59
2021/03/14 03:08:18;;;;;;;20.20;3.58;;;5.30;94.60;;;;;;5110246;28;20039;-58
2021/03/14 03:10:46;;;;;;;21.58;3.40;;;5.20;94.70;;;;;;5110090;28;20410;-58
2021/03/14 03:13:12;;;;;;;31.35;4.03;;;5.20;94.80;;;;;;5110229;28;20039;-58
2021/03/14 03:15:40;;;;;;;36.10;4.20;;;5.20;94.90;;;;;;5110571;28;20043;-58
2021/03/14 03:18:06;;;;;;;33.97;4.18;;;5.20;94.90;;;;;;5110000;28;20058;-59
2021/03/14 03:20:34;;;;;;;22.30;4.10;;;5.20;94.90;;;;;;5110227;28;20059;-58
2021/03/14 03:23:00;;;;;;;21.40;3.92;;;5.20;94.90;;;;;;5142637;27;20120;-58
2021/03/14 03:25:26;;;;;;;30.30;4.15;;;5.20;94.80;;;;;;5109988;28;20126;-60
2021/03/14 03:27:53;;;;;;;26.73;4.47;;;5.30;94.80;;;;;;5109871;28;20084;-59
2021/03/14 03:30:21;;;;;;;26.83;4.80;;;5.30;94.90;;;;;;5109953;28;20114;-59
2021/03/14 03:32:47;;;;;;;24.42;4.63;;;5.30;94.90;;;;;;5110073;28;20054;-59
2021/03/14 03:35:15;;;;;;;25.73;4.17;;;5.30;94.80;;;;;;5110009;28;20039;-58
2021/03/14 03:37:41;;;;;;;25.15;3.80;;;5.30;94.60;;;;;;5109763;28;20070;-59
2021/03/14 03:40:11;;;;;;;29.63;4.32;;;5.30;94.60;;;;;;5109547;28;20043;-59
2021/03/14 03:43:11;;;;;;;22.70;3.70;;;5.30;94.70;;;;;;5109892;28;20100;-59
2021/03/14 03:45:46;;;;;;;24.38;4.28;;;5.30;94.70;;;;;;5109736;28;20401;-59
2021/03/14 03:48:17;;;;;;;27.65;4.07;;;5.20;94.90;;;;;;5109504;27;20055;-59
2021/03/14 03:50:44;;;;;;;24.98;4.03;;;5.30;94.80;;;;;;5109518;28;20693;-59
2021/03/14 03:53:12;;;;;;;24.30;3.88;;;5.30;94.70;;;;;;5109820;28;20466;-59
2021/03/14 03:55:38;;;;;;;28.33;4.05;;;5.30;94.80;;;;;;5109331;27;20066;-60
2021/03/14 03:58:05;;;;;;;23.48;4.07;;;5.30;94.70;;;;;;5109296;28;20081;-59
2021/03/14 04:00:31;;;;;;;24.55;4.57;;;5.30;94.60;;;;;;5109788;28;20048;-59
2021/03/14 04:03:00;;;;;;;19.93;3.97;;;5.40;94.50;;;;;;5108758;28;20118;-59
2021/03/14 04:05:27;;;;;;;24.83;4.20;;;5.40;94.10;;;;;;5109309;28;20047;-58
2021/03/14 04:07:54;;;;;;;14.85;3.00;;;5.50;94.00;;;;;;5109380;28;20094;-59
2021/03/14 04:10:22;;;;;;;22.02;3.63;;;5.50;93.90;;;;;;5108774;28;20126;-59
2021/03/14 04:12:50;;;;;;;18.67;3.88;;;5.50;93.70;;;;;;5108951;28;20095;-59
2021/03/14 04:15:22;;;;;;;15.93;3.17;;;5.50;93.70;;;;;;5108568;28;20095;-59
2021/03/14 04:17:49;;;;;;;15.18;3.03;;;5.50;93.20;;;;;;5108588;28;20047;-59
2021/03/14 04:20:21;;;;;;;7.95;2.45;;;5.50;93.20;;;;;;5108511;28;20058;-59
2021/03/14 04:22:53;;;;;;;9.82;2.40;;;5.50;93.40;;;;;;5109141;28;20120;-61
2021/03/14 04:25:20;;;;;;;12.88;2.95;;;5.50;93.30;;;;;;5108547;28;20474;-59
2021/03/14 04:27:48;;;;;;;10.93;2.78;;;5.50;93.20;;;;;;5108834;28;20465;-60
2021/03/14 04:30:15;;;;;;;7.63;2.50;;;5.40;93.60;;;;;;5108213;28;20052;-59
2021/03/14 04:32:41;;;;;;;11.73;2.53;;;5.40;94.20;;;;;;5108643;28;20047;-59
2021/03/14 04:35:08;;;;;;;10.07;2.57;;;5.30;94.20;;;;;;5108512;28;20484;-59
2021/03/14 04:37:37;;;;;;;8.15;2.47;;;5.30;94.50;;;;;;5108642;28;20571;-59
2021/03/14 04:40:05;;;;;;;5.63;2.22;;;5.30;94.90;;;;;;5108418;28;20086;-59
2021/03/14 04:42:32;;;;;;;10.68;2.75;;;5.20;95.10;;;;;;5108532;28;20043;-59
2021/03/14 04:44:58;;;;;;;10.20;2.60;;;5.20;95.10;;;;;;5108132;28;20690;-59
2021/03/14 04:47:24;;;;;;;12.15;3.00;;;5.10;95.20;;;;;;5108324;28;20530;-59
2021/03/14 04:49:49;;;;;;;12.23;2.57;;;5.10;95.20;;;;;;5108290;28;20051;-60
2021/03/14 04:52:19;;;;;;;11.13;2.50;;;5.10;95.20;;;;;;5108499;28;20106;-59
2021/03/14 04:54:48;;;;;;;15.60;3.42;;;5.10;95.20;;;;;;5108291;28;20144;-59
2021/03/14 04:57:18;;;;;;;11.77;2.83;;;5.10;95.20;;;;;;5108232;28;20058;-59
2021/03/14 04:59:45;;;;;;;13.88;3.25;;;5.10;95.30;;;;;;5108398;28;20055;-59
2021/03/14 05:02:14;;;;;;;14.10;3.00;;;5.10;95.30;;;;;;5108167;28;20343;-59
2021/03/14 05:04:43;;;;;;;10.02;2.45;;;5.10;95.20;;;;;;5107991;28;20157;-59
2021/03/14 05:07:11;;;;;;;9.80;2.80;;;5.10;95.20;;;;;;5108005;28;20156;-59
2021/03/14 05:09:40;;;;;;;10.15;2.70;;;5.10;95.20;;;;;;5107715;28;20043;-59
2021/03/14 05:12:07;;;;;;;12.98;2.60;;;5.10;95.20;;;;;;5107799;28;20054;-59
2021/03/14 05:14:35;;;;;;;11.63;2.63;;;5.10;95.30;;;;;;5106289;28;20337;-59
2021/03/14 05:17:02;;;;;;;10.60;3.13;;;5.10;95.30;;;;;;5107586;28;20075;-59
2021/03/14 05:19:30;;;;;;;13.52;3.17;;;5.10;95.30;;;;;;5108130;28;20415;-60
2021/03/14 05:22:00;;;;;;;14.77;2.65;;;5.10;95.20;;;;;;5107965;28;20155;-59
2021/03/14 05:24:27;;;;;;;12.13;3.13;;;5.10;95.30;;;;;;5107705;28;20063;-59
2021/03/14 05:26:55;;;;;;;12.10;3.10;;;5.10;95.40;;;;;;5109105;28;20114;-60
2021/03/14 05:29:23;;;;;;;14.88;3.45;;;5.10;95.40;;;;;;5111765;28;20056;-58
2021/03/14 05:31:49;;;;;;;12.77;3.42;;;5.00;95.40;;;;;;5111777;28;20461;-59
2021/03/14 05:34:16;;;;;;;10.23;2.60;;;5.00;95.50;;;;;;5111951;28;20051;-59
2021/03/14 05:36:42;;;;;;;16.00;3.55;;;4.90;95.50;;;;;;5111748;28;20043;-60
2021/03/14 05:39:09;;;;;;;12.13;3.00;;;4.90;95.60;;;;;;5111727;28;20109;-59
2021/03/14 05:41:37;;;;;;;11.15;3.00;;;4.80;95.70;;;;;;5111588;28;20067;-60
2021/03/14 05:44:04;;;;;;;9.13;2.80;;;4.70;95.80;;;;;;5111513;27;20055;-59
2021/03/14 05:46:30;;;;;;;11.60;2.92;;;4.60;95.80;;;;;;5111250;28;20066;-59
2021/03/14 05:48:56;;;;;;;13.97;3.33;;;4.50;95.80;;;;;;5111068;28;20118;-59
2021/03/14 05:51:27;;;;;;;8.98;3.03;;;4.50;96.00;;;;;;5111250;28;20435;-59
2021/03/14 05:53:55;;;;;;;15.77;2.80;;;4.50;96.00;;;;;;5111611;28;20056;-59
2021/03/14 05:56:21;;;;;;;11.60;2.83;;;4.50;96.00;;;;;;5111281;28;20103;-59
2021/03/14 05:58:49;;;;;;;14.35;3.10;;;4.40;96.00;;;;;;5111588;28;20051;-58
2021/03/14 06:01:17;;;;;;;16.52;2.92;;;4.50;95.80;;;;;;5111415;27;20462;-60
2021/03/14 06:03:43;;;;;;;9.98;2.97;;;4.50;95.80;;;;;;5111364;28;20502;-59
2021/03/14 06:06:16;;;;;;;15.13;2.50;;;4.50;95.70;;;;;;5111283;28;20039;-59
2021/03/14 06:08:43;;;;;;;9.75;2.33;;;4.50;95.70;;;;;;5111297;28;20462;-59
2021/03/14 06:11:13;;;;;;;13.50;2.50;;;4.50;95.60;;;;;;5111349;28;20108;-59
2021/03/14 06:13:39;;;;;;;9.50;2.83;;;4.50;95.70;;;;;;5111099;28;20043;-59
2021/03/14 06:16:06;;;;;;;10.00;2.58;;;4.40;95.90;;;;;;5111353;28;20097;-60
2021/03/14 06:18:33;;;;;;;8.10;2.33;;;4.30;95.80;;;;;;5110992;28;20051;-59
2021/03/14 06:21:02;;;;;;;6.95;2.10;;;4.40;95.80;;;;;;5111185;28;20055;-59
2021/03/14 06:23:28;;;;;;;7.15;2.28;;;4.40;95.70;;;;;;5111152;28;20123;-59
2021/03/14 06:25:55;;;;;;;4.60;2.30;;;4.40;95.70;;;;;;5110284;28;20479;-59
2021/03/14 06:28:35;;;;;;;6.15;2.20;;;4.50;95.60;;;;;;5111201;28;20036;-58
2021/03/14 06:31:21;;;;;;;5.43;1.95;;;4.50;95.60;;;;;;5109595;28;20070;-58
2021/03/14 06:33:48;;;;;;;6.22;2.08;;;4.50;95.50;;;;;;5109910;28;20490;-59
2021/03/14 06:36:15;;;;;;;3.22;2.15;;;4.40;95.70;;;;;;5109972;28;20119;-59
2021/03/14 06:38:41;;;;;;;5.57;2.15;;;4.50;95.60;;;;;;5109160;28;20134;-58
2021/03/14 06:41:07;;;;;;;5.43;2.13;;;4.50;95.50;;;;;;5109770;28;20043;-58
2021/03/14 06:43:40;;;;;;;4.90;2.10;;;4.50;95.40;;;;;;5109720;28;20570;-59
2021/03/14 06:46:19;;;;;;;5.18;1.88;;;4.50;95.40;;;;;;5109668;28;20104;-59
2021/03/14 06:48:45;;;;;;;8.68;2.72;;;4.60;95.40;;;;;;5109289;28;20070;-59
2021/03/14 06:51:10;;;;;;;4.80;1.50;;;4.60;95.20;;;;;;5111800;28;20047;-59
2021/03/14 06:53:36;;;;;;;5.40;1.80;;;4.60;95.40;;;;;;5113189;28;20063;-59
2021/03/14 06:56:05;;;;;;;5.20;1.83;;;4.70;95.10;;;;;;5112996;28;20051;-59
2021/03/14 06:58:36;;;;;;;4.07;1.98;;;4.80;94.90;;;;;;5113182;28;20080;-59
2021/03/14 07:01:19;;;;;;;6.47;2.30;;;4.90;94.70;;;;;;5113776;28;20048;-61
2021/03/14 07:03:52;;;;;;;3.70;2.00;;;5.00;94.60;;;;;;5109686;28;20073;-59
2021/03/14 07:06:26;;;;;;;7.05;2.00;;;5.00;94.40;;;;;;5109444;28;20099;-60
2021/03/14 07:08:54;;;;;;;7.63;1.83;;;5.10;94.50;;;;;;5109168;28;20047;-59
2021/03/14 07:11:43;;;;;;;3.85;2.10;;;5.10;94.50;;;;;;5109070;28;20048;-59
2021/03/14 07:14:11;;;;;;;6.05;1.52;;;5.10;94.40;;;;;;5107538;28;20048;-59
2021/03/14 07:16:41;;;;;;;4.30;1.70;;;5.10;94.60;;;;;;5108261;28;20355;-59
2021/03/14 07:19:08;;;;;;;5.20;1.80;;;5.10;94.60;;;;;;5109293;28;20052;-59
2021/03/14 07:21:35;;;;;;;8.68;2.30;;;5.10;94.50;;;;;;5108920;28;20051;-59
2021/03/14 07:24:01;;;;;;;6.53;1.80;;;5.10;94.50;;;;;;5108700;28;20044;-60
2021/03/14 07:26:41;;;;;;;6.57;1.67;;;5.20;94.50;;;;;;5108870;28;20380;-59
2021/03/14 07:29:07;;;;;;;6.63;1.80;;;5.30;94.40;;;;;;5089442;28;545397;-59
2021/03/14 07:31:34;;;;;;;7.10;2.03;;;5.40;94.30;;;;;;5109568;28;20050;-59
2021/03/14 07:34:03;;;;;;;6.00;1.83;;;5.40;94.10;;;;;;5109738;28;20112;-59
2021/03/14 07:36:29;;;;;;;6.82;1.77;;;5.50;94.10;;;;;;5109759;28;20047;-58
2021/03/14 07:38:57;;;;;;;8.03;1.97;;;5.50;94.00;;;;;;5109613;28;20515;-58
2021/03/14 07:41:24;;;;;;;5.75;1.70;;;5.60;93.90;;;;;;5109181;28;20052;-59
2021/03/14 07:43:50;;;;;;;4.43;1.70;;;5.60;93.80;;;;;;5109603;28;20047;-59
2021/03/14 07:46:20;;;;;;;5.15;1.77;;;5.60;93.80;;;;;;5109321;28;20051;-58
2021/03/14 07:48:49;;;;;;;9.45;2.20;;;5.60;93.90;;;;;;5108759;28;20579;-58
2021/03/14 07:51:17;;;;;;;9.43;2.42;;;5.60;94.00;;;;;;5108932;28;20043;-59
2021/03/14 07:53:44;;;;;;;7.03;2.00;;;5.70;93.90;;;;;;5106259;28;20482;-59
2021/03/14 07:56:10;;;;;;;9.45;2.20;;;5.80;93.90;;;;;;5108815;28;20044;-58
2021/03/14 07:58:36;;;;;;;8.70;2.10;;;5.90;93.40;;;;;;5108613;28;20051;-60
2021/03/14 08:01:21;;;;;;;8.50;2.67;;;6.00;93.50;;;;;;5107159;28;20043;-59
2021/03/14 08:03:47;;;;;;;12.70;2.40;;;6.00;93.20;;;;;;5109092;28;20048;-59
2021/03/14 08:06:13;;;;;;;13.13;2.73;;;6.00;93.40;;;;;;5109022;28;20477;-59
2021/03/14 08:08:38;;;;;;;15.20;2.50;;;6.10;93.60;;;;;;5109054;28;20059;-59
2021/03/14 08:11:06;;;;;;;13.13;2.83;;;6.10;93.40;;;;;;5108862;28;20039;-59
2021/03/14 08:13:32;;;;;;;9.93;2.88;;;6.20;93.40;;;;;;5108749;28;20043;-59
2021/03/14 08:16:06;;;;;;;10.10;2.70;;;6.30;93.40;;;;;;5109088;28;20149;-58
2021/03/14 08:18:39;;;;;;;10.27;2.97;;;6.50;93.10;;;;;;5108859;28;20317;-59
2021/03/14 08:21:06;;;;;;;13.63;2.60;;;6.60;92.50;;;;;;5108726;28;20096;-59
2021/03/14 08:23:44;;;;;;;9.88;2.83;;;6.70;92.60;;;;;;5108596;28;20048;-59
2021/03/14 08:26:25;;;;;;;9.05;2.47;;;6.70;92.50;;;;;;5108757;28;20118;-59
2021/03/14 08:29:05;;;;;;;11.20;2.80;;;6.80;92.50;;;;;;5108425;28;20236;-59
2021/03/14 08:31:44;;;;;;;13.30;3.10;;;6.80;92.30;;;;;;5108640;28;20095;-59
2021/03/14 08:34:25;;;;;;;17.33;3.05;;;6.90;92.20;;;;;;5107199;28;20048;-59
2021/03/14 08:36:56;;;;;;;11.05;3.03;;;7.00;92.20;;;;;;5109008;28;20054;-59
2021/03/14 08:39:33;;;;;;;20.63;3.42;;;7.20;92.20;;;;;;5108664;28;20047;-59
2021/03/14 08:42:01;;;;;;;13.75;3.30;;;7.20;92.10;;;;;;5108779;28;20052;-59
2021/03/14 08:44:38;;;;;;;14.60;4.20;;;7.20;91.80;;;;;;5108569;28;20108;-59
2021/03/14 08:47:08;;;;;;;17.17;3.85;;;7.30;91.60;;;;;;5108755;28;20065;-59
2021/03/14 08:49:36;;;;;;;16.33;4.32;;;7.40;91.70;;;;;;5108766;28;20040;-60
2021/03/14 08:52:02;;;;;;;16.70;3.75;;;7.60;91.40;;;;;;5108524;28;20097;-60
2021/03/14 08:54:33;;;;;;;17.10;3.65;;;7.70;91.70;;;;;;5108435;28;20051;-59
2021/03/14 08:57:04;;;;;;;12.38;3.72;;;7.80;91.50;;;;;;5108459;28;20123;-60
2021/03/14 08:59:30;;;;;;;17.83;4.10;;;7.60;91.20;;;;;;5108487;28;20047;-60
2021/03/14 09:02:01;;;;;;;17.83;3.73;;;7.60;91.40;;;;;;5108461;28;20423;-60
2021/03/14 09:04:32;;;;;;;15.23;3.40;;;7.60;91.00;;;;;;5108607;28;20159;-60
2021/03/14 09:07:07;;;;;;;12.60;3.15;;;7.70;90.90;;;;;;5108552;28;20358;-60
2021/03/14 09:09:34;;;;;;;13.95;3.03;;;7.70;90.10;;;;;;5108412;28;20043;-59
2021/03/14 09:12:22;;;;;;;13.17;3.50;;;7.90;90.60;;;;;;5108681;28;20104;-59
2021/03/14 09:14:49;;;;;;;13.43;3.63;;;7.90;90.30;;;;;;5108314;28;21077;-59
2021/03/14 09:17:18;;;;;;;12.40;3.30;;;7.80;90.40;;;;;;5108263;28;20620;-63
2021/03/14 09:19:54;;;;;;;12.97;3.00;;;8.00;90.30;;;;;;5109356;28;20355;-59
2021/03/14 09:22:24;;;;;;;17.97;3.77;;;8.00;89.80;;;;;;5108316;28;20316;-59
2021/03/14 09:24:58;;;;;;;14.63;3.87;;;8.10;90.20;;;;;;5108237;28;20301;-58
2021/03/14 09:27:32;;;;;;;16.47;3.33;;;8.10;90.30;;;;;;5114826;28;20332;-59
2021/03/14 09:29:59;;;;;;;21.65;4.10;;;8.30;89.10;;;;;;5128490;27;20423;-59
2021/03/14 09:32:36;;;;;;;15.80;3.47;;;8.40;89.30;;;;;;5127061;27;20042;-60
2021/03/14 09:35:23;;;;;;;19.37;3.80;;;8.50;88.70;;;;;;5128674;27;20332;-60
2021/03/14 09:37:57;;;;;;;17.27;3.83;;;8.40;89.00;;;;;;5128549;27;20296;-59
2021/03/14 09:40:33;;;;;;;14.20;3.85;;;8.30;90.00;;;;;;5128525;27;20289;-58
2021/03/14 09:43:16;;;;;;;17.23;4.37;;;8.30;90.00;;;;;;5127973;27;20047;-59
2021/03/14 09:45:44;;;;;;;19.83;3.63;;;8.30;88.80;;;;;;5128332;28;20300;-59
2021/03/14 09:48:11;;;;;;;19.27;3.53;;;8.40;88.60;;;;;;5128395;27;20611;-60
2021/03/14 09:50:45;;;;;;;19.77;3.40;;;8.40;88.30;;;;;;5128038;27;20343;-60
2021/03/14 09:53:11;;;;;;;21.40;3.60;;;8.50;87.00;;;;;;5128413;28;20322;-59
2021/03/14 09:55:41;;;;;;;12.20;3.50;;;8.60;88.30;;;;;;5128501;28;20066;-58
2021/03/14 09:58:12;;;;;;;18.50;3.53;;;8.80;88.30;;;;;;5128102;27;20393;-58
2021/03/14 10:00:39;;;;;;;18.30;3.03;;;8.80;87.50;;;;;;5128337;28;20836;-59
2021/03/14 10:03:08;;;;;;;12.93;3.10;;;8.80;87.20;;;;;;5127922;27;20346;-59
2021/03/14 10:05:38;;;;;;;14.40;3.20;;;8.90;85.50;;;;;;5127753;27;20293;-60
2021/03/14 10:08:04;;;;;;;12.57;2.57;;;8.90;84.30;;;;;;5128265;28;20307;-59
2021/03/14 10:10:30;;;;;;;13.03;2.80;;;8.90;85.40;;;;;;5128202;27;20332;-59
2021/03/14 10:12:58;;;;;;;9.73;2.87;;;8.80;85.10;;;;;;5129613;27;20300;-59
2021/03/14 10:15:24;;;;;;;11.60;3.00;;;8.80;84.60;;;;;;5125144;27;20504;-60
2021/03/14 10:17:50;;;;;;;14.97;2.77;;;8.80;85.50;;;;;;5110344;28;20307;-59
2021/03/14 10:20:19;;;;;;;8.23;2.83;;;8.90;83.50;;;;;;5111478;28;20294;-59
2021/03/14 10:22:45;;;;;;;8.17;2.13;;;8.70;83.60;;;;;;5111557;28;20048;-59
2021/03/14 10:25:29;;;;;;;15.70;2.67;;;8.50;83.50;;;;;;5111997;28;20361;-59
2021/03/14 10:28:13;;;;;;;12.37;2.57;;;8.40;83.90;;;;;;5111732;28;20346;-59
2021/03/14 10:30:42;;;;;;;10.15;2.17;;;8.30;84.30;;;;;;5111662;28;20308;-59
2021/03/14 10:33:31;;;;;;;10.90;2.13;;;8.40;85.20;;;;;;5111591;28;20066;-60
2021/03/14 10:36:06;;;;;;;7.97;2.10;;;8.60;84.50;;;;;;5111734;28;20289;-59
2021/03/14 10:38:47;;;;;;;8.18;2.50;;;8.60;84.40;;;;;;5111054;28;20321;-58
2021/03/14 10:41:23;;;;;;;10.03;2.40;;;8.70;83.80;;;;;;5110820;28;20054;-58
2021/03/14 10:43:59;;;;;;;9.37;2.50;;;8.80;84.60;;;;;;5110990;28;20337;-59
2021/03/14 10:46:41;;;;;;;10.07;2.13;;;8.90;83.70;;;;;;5111098;28;20853;-58
2021/03/14 10:49:18;;;;;;;8.83;2.50;;;9.10;83.80;;;;;;5111330;28;20324;-58
2021/03/14 10:51:48;;;;;;;15.80;3.13;;;9.20;83.00;;;;;;5110935;28;20393;-58
2021/03/14 10:54:17;;;;;;;8.27;1.90;;;9.30;83.00;;;;;;5110844;27;20397;-59
2021/03/14 10:56:45;;;;;;;9.60;2.10;;;9.50;83.20;;;;;;5111049;28;20304;-59
2021/03/14 10:59:25;;;;;;;7.67;1.97;;;9.60;82.20;;;;;;5111128;28;20627;-59
2021/03/14 11:01:56;;;;;;;9.80;2.20;;;9.40;80.80;;;;;;5110992;28;20380;-59
2021/03/14 11:04:27;;;;;;;9.43;2.13;;;9.30;82.20;;;;;;5110892;28;20763;-60
2021/03/14 11:06:54;;;;;;;8.70;2.10;;;9.20;83.40;;;;;;5110998;28;20445;-58
2021/03/14 11:09:20;;;;;;;12.47;1.80;;;9.20;83.80;;;;;;5110719;28;20374;-59
2021/03/14 11:11:47;;;;;;;8.27;2.03;;;9.30;83.20;;;;;;5110651;28;20404;-58
2021/03/14 11:14:39;;;;;;;9.67;1.90;;;9.50;82.60;;;;;;5110803;28;20286;-59
2021/03/14 11:17:19;;;;;;;3.83;1.50;;;9.70;79.80;;;;;;5110697;28;20336;-59
2021/03/14 11:19:48;;;;;;;8.67;2.20;;;9.90;80.20;;;;;;5110332;28;20863;-60
2021/03/14 11:22:15;;;;;;;9.63;2.03;;;9.80;80.50;;;;;;5110104;28;20380;-59
2021/03/14 11:24:42;;;;;;;5.83;1.70;;;9.80;82.60;;;;;;5107464;28;20293;-59
2021/03/14 11:27:08;;;;;;;10.13;2.20;;;9.90;81.40;;;;;;5109985;28;20308;-59
2021/03/14 11:29:35;;;;;;;7.40;1.53;;;10.10;81.90;;;;;;5109965;28;20340;-60
2021/03/14 11:32:01;;;;;;;7.07;1.43;;;9.80;79.10;;;;;;5110050;28;20332;-59
2021/03/14 11:34:26;;;;;;;9.07;1.90;;;9.60;78.60;;;;;;5109966;28;20740;-60
2021/03/14 11:36:52;;;;;;;7.00;1.43;;;9.30;78.90;;;;;;5110009;28;20312;-59
2021/03/14 11:39:18;;;;;;;5.90;1.80;;;9.10;80.00;;;;;;5109808;28;20092;-59
2021/03/14 11:41:46;;;;;;;4.00;1.33;;;9.00;81.00;;;;;;5110225;28;20170;-58
2021/03/14 11:44:12;;;;;;;8.47;2.27;;;9.10;80.90;;;;;;5109720;28;20634;-59
2021/03/14 11:46:38;;;;;;;8.33;1.87;;;9.20;80.60;;;;;;5106964;28;20309;-59
2021/03/14 11:49:04;;;;;;;6.27;1.77;;;9.50;79.90;;;;;;5109104;28;20063;-59
2021/03/14 11:51:29;;;;;;;7.13;1.60;;;9.70;79.80;;;;;;5109028;28;20315;-60
2021/03/14 11:53:58;;;;;;;5.67;1.63;;;9.80;79.90;;;;;;5109720;28;20297;-59
2021/03/14 11:56:25;;;;;;;6.77;1.50;;;9.60;80.60;;;;;;5109716;28;20047;-60
2021/03/14 11:58:50;;;;;;;7.50;1.97;;;9.20;80.40;;;;;;5109689;28;20327;-60
2021/03/14 12:01:16;;;;;;;11.57;2.10;;;9.00;81.30;;;;;;5108712;28;20328;-59
2021/03/14 12:03:43;;;;;;;13.93;2.20;;;8.80;82.30;;;;;;5109983;28;20112;-60
2021/03/14 12:06:11;;;;;;;10.53;2.10;;;8.80;83.90;;;;;;5109239;28;20304;-60
2021/03/14 12:08:36;;;;;;;13.70;2.13;;;9.00;83.80;;;;;;5109828;28;20297;-59
2021/03/14 12:11:05;;;;;;;7.10;1.80;;;9.20;83.70;;;;;;5109504;28;20620;-59
2021/03/14 12:13:32;;;;;;;12.10;2.50;;;9.40;82.90;;;;;;5109414;28;20047;-59
2021/03/14 12:15:58;;;;;;;7.53;1.90;;;9.40;82.00;;;;;;5108298;28;20339;-60
2021/03/14 12:18:23;;;;;;;9.20;1.90;;;9.40;83.10;;;;;;5109453;28;20289;-60
2021/03/14 12:20:49;;;;;;;10.23;2.20;;;9.30;82.60;;;;;;5108987;28;20320;-60
2021/03/14 12:23:17;;;;;;;10.10;2.10;;;9.10;82.80;;;;;;5108541;28;20047;-60
2021/03/14 12:25:42;;;;;;;9.17;2.07;;;9.10;83.80;;;;;;5108923;28;20051;-60
2021/03/14 12:28:09;;;;;;;6.90;1.40;;;9.10;84.40;;;;;;5109385;28;20300;-60
2021/03/14 12:30:35;;;;;;;10.03;2.03;;;9.20;84.20;;;;;;5108216;28;20297;-59
2021/03/14 12:33:00;;;;;;;11.30;1.97;;;9.30;82.90;;;;;;5109287;28;20055;-60
2021/03/14 12:35:26;;;;;;;11.53;2.50;;;9.40;83.00;;;;;;5109007;28;20092;-60
2021/03/14 12:37:52;;;;;;;9.13;2.17;;;9.50;83.50;;;;;;5109436;28;20091;-61
2021/03/14 12:40:18;;;;;;;8.70;2.00;;;9.60;81.80;;;;;;5109361;28;20448;-60
2021/03/14 12:42:44;;;;;;;11.60;2.40;;;9.70;81.50;;;;;;5109400;28;20047;-60
2021/03/14 12:45:10;;;;;;;13.10;1.97;;;9.70;81.80;;;;;;5109575;28;20089;-59
2021/03/14 12:47:36;;;;;;;9.80;2.23;;;9.50;80.00;;;;;;5108943;28;20178;-59
2021/03/14 12:50:06;;;;;;;12.83;2.20;;;9.40;80.50;;;;;;5108793;28;20329;-59
2021/03/14 12:52:33;;;;;;;6.10;1.73;;;9.40;82.10;;;;;;5108758;28;20092;-58
2021/03/14 12:54:58;;;;;;;11.77;2.83;;;9.30;82.10;;;;;;5107817;28;20434;-58
2021/03/14 12:57:24;;;;;;;11.37;2.10;;;9.30;82.10;;;;;;5108864;28;20301;-60
2021/03/14 12:59:50;;;;;;;12.00;2.00;;;9.30;82.50;;;;;;5108209;28;20062;-60